KHRL/HRL METAR and TAF weather

Enter ICAO airport designator
Station Type Date Time Source
KHRL METAR 2022/01/26 20:13 UTC NOAA

KHRL 262013Z 04015KT 10SM FEW021 BKN029 OVC055 19/09 A3013 RMK AO2 T01940094 $


Station Type Date Time Source
KHRL Decoded METAR 2022/01/26 20:13 UTC NOAA

RIO GRANDE VALLEY, TX, United States (KHRL) 26-13N 97-39W 10M
Jan 26, 2022 - 03:13 PM EST / 2022.01.26 2013 UTC
Wind: from the NE (040 degrees) at 17 MPH (15 KT):0
Visibility: 10 mile(s):0
Sky conditions: overcast
Temperature: 66.9 F (19.4 C)
Dew Point: 48.9 F (9.4 C)
Relative Humidity: 52%
Pressure (altimeter): 30.13 in. Hg (1020 hPa)
ob: KHRL 262013Z 04015KT 10SM FEW021 BKN029 OVC055 19/09 A3013 RMK AO2 T01940094
cycle: 20

Station Type Date Time Source
KHRL TAF 2022/01/26 19:42 UTC NOAA

TAF
AMD KHRL 261840Z 2619/2718 04011KT P6SM FEW020 SCT030 BKN045
FM262000 05010KT P6SM VCSH FEW012 BKN020
FM270600 01007KT P6SM BKN020 PROB30 2706/2712 4SM -RA OVC030
FM271200 36008KT P6SM OVC015 PROB30 2712/2718 4SM -RA OVC012

Example: see airport list